EUS17TU EGPH-EKVG
Flight info
| Callsign | EUS17TU |
|---|---|
| Flight time | 1h 10m |
| Altitude | 33000 |
| Route | GRICE P600 GLESK DCT SMOKI/N0415F320 DCT NALAN DCT SUDUR |
| Aircraft | B738/M-SDE2E3FGHIRWXY/LB1 |
Departure
| Time | 2026-04-22 16:51 |
|---|---|
| Airport | Edinburgh Airport (EGPH) |
Arrival
| Time | 2026-04-22 18:01 |
|---|---|
| Airport | Vágar Airport (EKVG) |
| Time | Latitude | Longitude | Altitude | Speed | Heading |
|---|---|---|---|---|---|
| 2026-04-22 16:06 | 55.94909 | -3.36499 | 115 ft | 0 kts | 148° |
| 2026-04-22 16:40 | 55.94913 | -3.36504 | 111 ft | 3 kts | 149° |
| 2026-04-22 16:40 | 55.94935 | -3.36528 | 113 ft | 4 kts | 152° |
| 2026-04-22 16:40 | 55.94976 | -3.36509 | 111 ft | 3 kts | 238° |
| 2026-04-22 16:41 | 55.94978 | -3.36503 | 111 ft | 0 kts | 238° |
| 2026-04-22 16:44 | 55.94977 | -3.36505 | 111 ft | 1 kts | 238° |
| 2026-04-22 16:44 | 55.94962 | -3.36549 | 111 ft | 7 kts | 238° |
| 2026-04-22 16:45 | 55.94933 | -3.36632 | 115 ft | 9 kts | 238° |
| 2026-04-22 16:45 | 55.94899 | -3.36740 | 114 ft | 11 kts | 248° |
| 2026-04-22 16:45 | 55.94925 | -3.36860 | 113 ft | 11 kts | 282° |
| 2026-04-22 16:45 | 55.94894 | -3.36984 | 111 ft | 12 kts | 246° |
| 2026-04-22 16:46 | 55.94854 | -3.37109 | 114 ft | 15 kts | 239° |
| 2026-04-22 16:47 | 55.94834 | -3.37168 | 115 ft | 17 kts | 238° |
| 2026-04-22 16:47 | 55.94771 | -3.37352 | 114 ft | 19 kts | 238° |
| 2026-04-22 16:47 | 55.94724 | -3.37491 | 111 ft | 19 kts | 239° |
| 2026-04-22 16:47 | 55.94634 | -3.37755 | 114 ft | 18 kts | 239° |
| 2026-04-22 16:48 | 55.94565 | -3.37958 | 114 ft | 20 kts | 239° |
| 2026-04-22 16:48 | 55.94496 | -3.38162 | 114 ft | 19 kts | 238° |
| 2026-04-22 16:48 | 55.94428 | -3.38359 | 114 ft | 18 kts | 239° |
| 2026-04-22 16:48 | 55.94364 | -3.38552 | 115 ft | 18 kts | 239° |
| 2026-04-22 16:49 | 55.94299 | -3.38744 | 113 ft | 16 kts | 238° |
| 2026-04-22 16:49 | 55.94305 | -3.38886 | 113 ft | 13 kts | 324° |
| 2026-04-22 16:49 | 55.94384 | -3.38970 | 110 ft | 14 kts | 336° |
| 2026-04-22 16:49 | 55.94449 | -3.38873 | 113 ft | 13 kts | 59° |
| 2026-04-22 16:50 | 55.94461 | -3.38840 | 113 ft | 0 kts | 58° |
| 2026-04-22 16:50 | 55.94479 | -3.38787 | 111 ft | 27 kts | 59° |
| 2026-04-22 16:50 | 55.94752 | -3.37977 | 112 ft | 122 kts | 59° |
| 2026-04-22 16:50 | 55.95324 | -3.36346 | 493 ft | 174 kts | 60° |
| 2026-04-22 16:51 | 55.95994 | -3.34473 | 1774 ft | 177 kts | 59° |
| 2026-04-22 16:51 | 55.96789 | -3.32793 | 3008 ft | 189 kts | 43° |
| 2026-04-22 16:51 | 55.97892 | -3.31396 | 3829 ft | 193 kts | 36° |
| 2026-04-22 16:51 | 55.98994 | -3.30008 | 4505 ft | 201 kts | 46° |
| 2026-04-22 16:52 | 56.00093 | -3.28268 | 4836 ft | 218 kts | 44° |
| 2026-04-22 16:52 | 56.01467 | -3.26853 | 5123 ft | 243 kts | 20° |
| 2026-04-22 16:52 | 56.03195 | -3.26635 | 5680 ft | 255 kts | 353° |
| 2026-04-22 16:52 | 56.04901 | -3.27681 | 6143 ft | 273 kts | 330° |
| 2026-04-22 16:53 | 56.06363 | -3.29945 | 6363 ft | 281 kts | 307° |
| 2026-04-22 16:53 | 56.07245 | -3.33053 | 6503 ft | 283 kts | 285° |
| 2026-04-22 16:53 | 56.07669 | -3.36504 | 6524 ft | 285 kts | 279° |
| 2026-04-22 16:53 | 56.08067 | -3.39975 | 6512 ft | 283 kts | 281° |
| 2026-04-22 16:54 | 56.08511 | -3.43424 | 6524 ft | 286 kts | 282° |
| 2026-04-22 16:54 | 56.08992 | -3.46901 | 6523 ft | 288 kts | 282° |
| 2026-04-22 16:54 | 56.09494 | -3.50399 | 6525 ft | 290 kts | 282° |
| 2026-04-22 16:54 | 56.10015 | -3.53914 | 6522 ft | 291 kts | 288° |
| 2026-04-22 16:55 | 56.10927 | -3.57139 | 6528 ft | 292 kts | 302° |
| 2026-04-22 16:55 | 56.11974 | -3.60233 | 6536 ft | 288 kts | 300° |
| 2026-04-22 16:55 | 56.12972 | -3.63328 | 6512 ft | 286 kts | 302° |
| 2026-04-22 16:55 | 56.14375 | -3.65825 | 6504 ft | 289 kts | 335° |
| 2026-04-22 16:56 | 56.16262 | -3.67014 | 6522 ft | 287 kts | 347° |
| 2026-04-22 16:56 | 56.18197 | -3.67800 | 6497 ft | 283 kts | 357° |
| 2026-04-22 16:56 | 56.20108 | -3.67404 | 6544 ft | 277 kts | 19° |
| 2026-04-22 16:56 | 56.21835 | -3.65925 | 7042 ft | 275 kts | 38° |
| 2026-04-22 16:57 | 56.23394 | -3.63930 | 7841 ft | 277 kts | 39° |
| 2026-04-22 16:57 | 56.24953 | -3.61843 | 8618 ft | 282 kts | 41° |
| 2026-04-22 16:57 | 56.26546 | -3.59723 | 9368 ft | 287 kts | 39° |
| 2026-04-22 16:57 | 56.28170 | -3.57589 | 10153 ft | 292 kts | 39° |
| 2026-04-22 16:58 | 56.29267 | -3.56152 | 10611 ft | 296 kts | 38° |
| 2026-04-22 16:58 | 56.31584 | -3.53172 | 11068 ft | 321 kts | 39° |
| 2026-04-22 16:58 | 56.33454 | -3.50791 | 11473 ft | 336 kts | 38° |
| 2026-04-22 16:58 | 56.35376 | -3.48344 | 12196 ft | 339 kts | 37° |
| 2026-04-22 16:59 | 56.37318 | -3.45864 | 12911 ft | 345 kts | 38° |
| 2026-04-22 16:59 | 56.39280 | -3.43321 | 13675 ft | 349 kts | 38° |
| 2026-04-22 16:59 | 56.41253 | -3.40749 | 14462 ft | 352 kts | 38° |
| 2026-04-22 16:59 | 56.43254 | -3.38137 | 15181 ft | 357 kts | 38° |
| 2026-04-22 17:00 | 56.45260 | -3.35548 | 15903 ft | 361 kts | 36° |
| 2026-04-22 17:00 | 56.49471 | -3.30344 | 17356 ft | 370 kts | 36° |
| 2026-04-22 17:00 | 56.51615 | -3.27714 | 18070 ft | 375 kts | 36° |
| 2026-04-22 17:01 | 56.53786 | -3.25042 | 18756 ft | 380 kts | 36° |
| 2026-04-22 17:01 | 56.55981 | -3.22328 | 19400 ft | 384 kts | 36° |
| 2026-04-22 17:01 | 56.58194 | -3.19584 | 20062 ft | 386 kts | 35° |
| 2026-04-22 17:01 | 56.60420 | -3.16816 | 20705 ft | 390 kts | 35° |
| 2026-04-22 17:02 | 56.62664 | -3.14020 | 21315 ft | 394 kts | 35° |
| 2026-04-22 17:02 | 56.64933 | -3.11190 | 21936 ft | 397 kts | 34° |
| 2026-04-22 17:02 | 56.67225 | -3.08327 | 22532 ft | 401 kts | 34° |
| 2026-04-22 17:02 | 56.69532 | -3.05440 | 23163 ft | 404 kts | 34° |
| 2026-04-22 17:03 | 56.71854 | -3.02521 | 23752 ft | 408 kts | 34° |
| 2026-04-22 17:03 | 56.74194 | -2.99569 | 24311 ft | 411 kts | 33° |
| 2026-04-22 17:03 | 56.76551 | -2.96590 | 24803 ft | 413 kts | 33° |
| 2026-04-22 17:03 | 56.78922 | -2.93599 | 25285 ft | 416 kts | 33° |
| 2026-04-22 17:04 | 56.80507 | -2.91604 | 25592 ft | 418 kts | 33° |
| 2026-04-22 17:04 | 56.83725 | -2.87548 | 26209 ft | 423 kts | 35° |
| 2026-04-22 17:04 | 56.86152 | -2.84480 | 26679 ft | 425 kts | 35° |
| 2026-04-22 17:04 | 56.87793 | -2.82508 | 26983 ft | 427 kts | 30° |
| 2026-04-22 17:05 | 56.90486 | -2.80185 | 27424 ft | 430 kts | 20° |
| 2026-04-22 17:05 | 56.93374 | -2.78694 | 27880 ft | 432 kts | 9° |
| 2026-04-22 17:05 | 56.96361 | -2.77944 | 28336 ft | 434 kts | 6° |
| 2026-04-22 17:05 | 56.99370 | -2.77326 | 28772 ft | 437 kts | 5° |
| 2026-04-22 17:06 | 57.02396 | -2.76732 | 29265 ft | 437 kts | 5° |
| 2026-04-22 17:06 | 57.05407 | -2.76129 | 29909 ft | 434 kts | 5° |
| 2026-04-22 17:06 | 57.08396 | -2.75509 | 30583 ft | 431 kts | 6° |
| 2026-04-22 17:06 | 57.11383 | -2.74871 | 30890 ft | 435 kts | 6° |
| 2026-04-22 17:07 | 57.14403 | -2.74211 | 31166 ft | 439 kts | 7° |
| 2026-04-22 17:07 | 57.17430 | -2.73541 | 31622 ft | 437 kts | 7° |
| 2026-04-22 17:07 | 57.20440 | -2.72870 | 32143 ft | 434 kts | 7° |
| 2026-04-22 17:07 | 57.23438 | -2.72200 | 32583 ft | 434 kts | 7° |
| 2026-04-22 17:08 | 57.26436 | -2.71528 | 32966 ft | 434 kts | 7° |
| 2026-04-22 17:08 | 57.29435 | -2.70856 | 33341 ft | 435 kts | 7° |
| 2026-04-22 17:08 | 57.32448 | -2.70180 | 33552 ft | 439 kts | 7° |
| 2026-04-22 17:08 | 57.35458 | -2.69504 | 33537 ft | 442 kts | 8° |
| 2026-04-22 17:09 | 57.41567 | -2.68130 | 33528 ft | 440 kts | 8° |
| 2026-04-22 17:09 | 57.47605 | -2.66767 | 33545 ft | 437 kts | 8° |
| 2026-04-22 17:10 | 57.53687 | -2.65387 | 33557 ft | 447 kts | 8° |
| 2026-04-22 17:10 | 57.59958 | -2.63959 | 33558 ft | 461 kts | 8° |
| 2026-04-22 17:11 | 57.66427 | -2.62485 | 33550 ft | 475 kts | 9° |
| 2026-04-22 17:11 | 57.73064 | -2.61003 | 33545 ft | 487 kts | 6° |
| 2026-04-22 17:12 | 57.76471 | -2.61085 | 33536 ft | 493 kts | 354° |
| 2026-04-22 17:12 | 57.79843 | -2.62310 | 33543 ft | 494 kts | 344° |
| 2026-04-22 17:12 | 57.86124 | -2.67511 | 33546 ft | 495 kts | 332° |
| 2026-04-22 17:13 | 57.92226 | -2.73534 | 33520 ft | 496 kts | 332° |
| 2026-04-22 17:13 | 57.98364 | -2.79565 | 33546 ft | 499 kts | 333° |
| 2026-04-22 17:14 | 58.04554 | -2.85558 | 33550 ft | 502 kts | 333° |
| 2026-04-22 17:14 | 58.10745 | -2.91530 | 33546 ft | 504 kts | 333° |
| 2026-04-22 17:15 | 58.16995 | -2.97577 | 33539 ft | 505 kts | 333° |
| 2026-04-22 17:15 | 58.23257 | -3.03665 | 33549 ft | 507 kts | 333° |
| 2026-04-22 17:16 | 58.29542 | -3.09804 | 33590 ft | 508 kts | 333° |
| 2026-04-22 17:16 | 58.35747 | -3.15893 | 33548 ft | 495 kts | 333° |
| 2026-04-22 17:17 | 58.41868 | -3.21918 | 33569 ft | 496 kts | 333° |
| 2026-04-22 17:17 | 58.48018 | -3.27997 | 33560 ft | 502 kts | 333° |
| 2026-04-22 17:18 | 58.54273 | -3.34204 | 33564 ft | 508 kts | 333° |
| 2026-04-22 17:18 | 58.60544 | -3.40453 | 33550 ft | 507 kts | 333° |
| 2026-04-22 17:19 | 58.73049 | -3.52991 | 33541 ft | 506 kts | 333° |
| 2026-04-22 17:20 | 58.85518 | -3.65595 | 33541 ft | 506 kts | 333° |
| 2026-04-22 17:21 | 58.94856 | -3.75101 | 33542 ft | 506 kts | 332° |
| 2026-04-22 17:22 | 59.04192 | -3.84667 | 33566 ft | 506 kts | 332° |
| 2026-04-22 17:23 | 59.13533 | -3.94293 | 33548 ft | 506 kts | 332° |
| 2026-04-22 17:23 | 59.22853 | -4.03960 | 33545 ft | 505 kts | 332° |
| 2026-04-22 17:24 | 59.29053 | -4.10423 | 33539 ft | 506 kts | 332° |
| 2026-04-22 17:24 | 59.35269 | -4.16931 | 33557 ft | 507 kts | 332° |
| 2026-04-22 17:25 | 59.41497 | -4.23478 | 33550 ft | 509 kts | 332° |
| 2026-04-22 17:25 | 59.47701 | -4.30028 | 33551 ft | 510 kts | 332° |
| 2026-04-22 17:26 | 59.53958 | -4.36662 | 33536 ft | 512 kts | 332° |
| 2026-04-22 17:26 | 59.60238 | -4.43348 | 33554 ft | 513 kts | 332° |
| 2026-04-22 17:27 | 59.66530 | -4.50076 | 33557 ft | 515 kts | 332° |
| 2026-04-22 17:27 | 59.72832 | -4.56844 | 33554 ft | 516 kts | 332° |
| 2026-04-22 17:28 | 59.79133 | -4.63641 | 33554 ft | 515 kts | 332° |
| 2026-04-22 17:28 | 59.85408 | -4.70440 | 33552 ft | 513 kts | 332° |
| 2026-04-22 17:29 | 59.91675 | -4.77256 | 33553 ft | 513 kts | 332° |
| 2026-04-22 17:29 | 59.97940 | -4.84101 | 33559 ft | 513 kts | 332° |
| 2026-04-22 17:30 | 60.01027 | -4.87486 | 33520 ft | 498 kts | 332° |
| 2026-04-22 17:30 | 60.04013 | -4.90769 | 33545 ft | 482 kts | 332° |
| 2026-04-22 17:30 | 60.06908 | -4.93957 | 33526 ft | 468 kts | 332° |
| 2026-04-22 17:30 | 60.09721 | -4.97061 | 33366 ft | 458 kts | 332° |
| 2026-04-22 17:31 | 60.12493 | -5.00126 | 33101 ft | 452 kts | 332° |
| 2026-04-22 17:31 | 60.15237 | -5.03163 | 32733 ft | 449 kts | 332° |
| 2026-04-22 17:31 | 60.17964 | -5.06187 | 32374 ft | 446 kts | 332° |
| 2026-04-22 17:31 | 60.20675 | -5.09199 | 32009 ft | 444 kts | 332° |
| 2026-04-22 17:32 | 60.23337 | -5.12163 | 31661 ft | 442 kts | 332° |
| 2026-04-22 17:32 | 60.26018 | -5.15155 | 31311 ft | 440 kts | 332° |
| 2026-04-22 17:32 | 60.28692 | -5.18143 | 30951 ft | 439 kts | 333° |
| 2026-04-22 17:32 | 60.31356 | -5.21126 | 30564 ft | 438 kts | 333° |
| 2026-04-22 17:33 | 60.33116 | -5.23101 | 30282 ft | 437 kts | 332° |
| 2026-04-22 17:33 | 60.36653 | -5.27075 | 29741 ft | 433 kts | 333° |
| 2026-04-22 17:33 | 60.39274 | -5.30027 | 29395 ft | 429 kts | 332° |
| 2026-04-22 17:33 | 60.41868 | -5.32955 | 29021 ft | 426 kts | 332° |
| 2026-04-22 17:34 | 60.44447 | -5.35871 | 28651 ft | 423 kts | 332° |
| 2026-04-22 17:34 | 60.47004 | -5.38766 | 28289 ft | 420 kts | 332° |
| 2026-04-22 17:34 | 60.49549 | -5.41654 | 27974 ft | 417 kts | 332° |
| 2026-04-22 17:34 | 60.52072 | -5.44521 | 27599 ft | 415 kts | 332° |
| 2026-04-22 17:35 | 60.54584 | -5.47381 | 27232 ft | 413 kts | 332° |
| 2026-04-22 17:35 | 60.57079 | -5.50227 | 26872 ft | 410 kts | 332° |
| 2026-04-22 17:35 | 60.59560 | -5.53061 | 26518 ft | 407 kts | 331° |
| 2026-04-22 17:35 | 60.62022 | -5.55880 | 26166 ft | 405 kts | 331° |
| 2026-04-22 17:36 | 60.64467 | -5.58684 | 25799 ft | 403 kts | 332° |
| 2026-04-22 17:36 | 60.66904 | -5.61484 | 25455 ft | 400 kts | 332° |
| 2026-04-22 17:36 | 60.69321 | -5.64264 | 25115 ft | 398 kts | 331° |
| 2026-04-22 17:36 | 60.71723 | -5.67033 | 24775 ft | 396 kts | 331° |
| 2026-04-22 17:37 | 60.74080 | -5.69756 | 24436 ft | 394 kts | 331° |
| 2026-04-22 17:37 | 60.76457 | -5.72505 | 24087 ft | 391 kts | 331° |
| 2026-04-22 17:37 | 60.78820 | -5.75243 | 23680 ft | 389 kts | 331° |
| 2026-04-22 17:37 | 60.81170 | -5.77970 | 23303 ft | 386 kts | 331° |
| 2026-04-22 17:38 | 60.83497 | -5.80677 | 22964 ft | 383 kts | 330° |
| 2026-04-22 17:38 | 60.85801 | -5.83360 | 22610 ft | 380 kts | 330° |
| 2026-04-22 17:38 | 60.88089 | -5.86030 | 22283 ft | 376 kts | 330° |
| 2026-04-22 17:38 | 60.90354 | -5.88676 | 21939 ft | 373 kts | 330° |
| 2026-04-22 17:39 | 60.92601 | -5.91306 | 21586 ft | 370 kts | 330° |
| 2026-04-22 17:39 | 60.94829 | -5.93918 | 21265 ft | 367 kts | 330° |
| 2026-04-22 17:39 | 60.99237 | -5.99099 | 20619 ft | 362 kts | 330° |
| 2026-04-22 17:40 | 61.01307 | -6.02000 | 20316 ft | 358 kts | 320° |
| 2026-04-22 17:40 | 61.03208 | -6.05274 | 20093 ft | 353 kts | 318° |
| 2026-04-22 17:40 | 61.05054 | -6.08578 | 19833 ft | 349 kts | 317° |
| 2026-04-22 17:40 | 61.06872 | -6.11857 | 19612 ft | 344 kts | 317° |
| 2026-04-22 17:41 | 61.08673 | -6.15093 | 19331 ft | 342 kts | 318° |
| 2026-04-22 17:41 | 61.10471 | -6.18308 | 19030 ft | 341 kts | 318° |
| 2026-04-22 17:41 | 61.12263 | -6.21501 | 18704 ft | 340 kts | 318° |
| 2026-04-22 17:41 | 61.14053 | -6.24683 | 18355 ft | 338 kts | 318° |
| 2026-04-22 17:42 | 61.15835 | -6.27848 | 18042 ft | 337 kts | 317° |
| 2026-04-22 17:42 | 61.17609 | -6.30999 | 17707 ft | 335 kts | 317° |
| 2026-04-22 17:42 | 61.18779 | -6.33077 | 17481 ft | 334 kts | 317° |
| 2026-04-22 17:42 | 61.21126 | -6.37254 | 17055 ft | 331 kts | 318° |
| 2026-04-22 17:43 | 61.22872 | -6.40364 | 16746 ft | 329 kts | 318° |
| 2026-04-22 17:43 | 61.24605 | -6.43456 | 16436 ft | 328 kts | 318° |
| 2026-04-22 17:43 | 61.26327 | -6.46533 | 16128 ft | 326 kts | 318° |
| 2026-04-22 17:43 | 61.28040 | -6.49599 | 15821 ft | 324 kts | 318° |
| 2026-04-22 17:44 | 61.29742 | -6.52649 | 15518 ft | 322 kts | 318° |
| 2026-04-22 17:44 | 61.31435 | -6.55687 | 15216 ft | 321 kts | 318° |
| 2026-04-22 17:44 | 61.33120 | -6.58716 | 14913 ft | 319 kts | 318° |
| 2026-04-22 17:44 | 61.34796 | -6.61733 | 14612 ft | 318 kts | 318° |
| 2026-04-22 17:45 | 61.36439 | -6.64694 | 14303 ft | 316 kts | 318° |
| 2026-04-22 17:45 | 61.38099 | -6.67690 | 13970 ft | 315 kts | 318° |
| 2026-04-22 17:45 | 61.39747 | -6.70671 | 13650 ft | 313 kts | 317° |
| 2026-04-22 17:45 | 61.41385 | -6.73637 | 13353 ft | 311 kts | 317° |
| 2026-04-22 17:46 | 61.43013 | -6.76588 | 13044 ft | 309 kts | 317° |
| 2026-04-22 17:46 | 61.44628 | -6.79519 | 12760 ft | 306 kts | 317° |
| 2026-04-22 17:46 | 61.46231 | -6.82434 | 12454 ft | 305 kts | 317° |
| 2026-04-22 17:46 | 61.47825 | -6.85337 | 12166 ft | 302 kts | 317° |
| 2026-04-22 17:47 | 61.49403 | -6.88215 | 11879 ft | 300 kts | 317° |
| 2026-04-22 17:47 | 61.50975 | -6.91085 | 11584 ft | 299 kts | 317° |
| 2026-04-22 17:47 | 61.52529 | -6.93927 | 11287 ft | 294 kts | 317° |
| 2026-04-22 17:47 | 61.54047 | -6.96705 | 10996 ft | 285 kts | 317° |
| 2026-04-22 17:48 | 61.55026 | -6.98499 | 10815 ft | 279 kts | 317° |
| 2026-04-22 17:48 | 61.56956 | -7.02039 | 10591 ft | 270 kts | 317° |
| 2026-04-22 17:48 | 61.58370 | -7.04639 | 10315 ft | 273 kts | 317° |
| 2026-04-22 17:48 | 61.59819 | -7.07306 | 9924 ft | 280 kts | 317° |
| 2026-04-22 17:49 | 61.61445 | -7.09576 | 9541 ft | 283 kts | 334° |
| 2026-04-22 17:49 | 61.63244 | -7.11247 | 9243 ft | 282 kts | 336° |
| 2026-04-22 17:49 | 61.65107 | -7.12507 | 8900 ft | 283 kts | 349° |
| 2026-04-22 17:49 | 61.67038 | -7.12840 | 8655 ft | 276 kts | 2° |
| 2026-04-22 17:50 | 61.68911 | -7.12276 | 8322 ft | 269 kts | 15° |
| 2026-04-22 17:50 | 61.70634 | -7.10888 | 8010 ft | 263 kts | 28° |
| 2026-04-22 17:50 | 61.72150 | -7.08796 | 7629 ft | 259 kts | 40° |
| 2026-04-22 17:50 | 61.73469 | -7.06239 | 7261 ft | 256 kts | 43° |
| 2026-04-22 17:51 | 61.74776 | -7.03714 | 6885 ft | 254 kts | 43° |
| 2026-04-22 17:51 | 61.76077 | -7.01220 | 6490 ft | 251 kts | 43° |
| 2026-04-22 17:51 | 61.77366 | -6.98748 | 6104 ft | 249 kts | 43° |
| 2026-04-22 17:51 | 61.78643 | -6.96297 | 5719 ft | 247 kts | 43° |
| 2026-04-22 17:52 | 61.79911 | -6.93860 | 5344 ft | 246 kts | 43° |
| 2026-04-22 17:52 | 61.81170 | -6.91436 | 4976 ft | 243 kts | 43° |
| 2026-04-22 17:52 | 61.82401 | -6.89062 | 4713 ft | 236 kts | 43° |
| 2026-04-22 17:52 | 61.83601 | -6.86744 | 4442 ft | 231 kts | 42° |
| 2026-04-22 17:53 | 61.84771 | -6.84483 | 4166 ft | 226 kts | 42° |
| 2026-04-22 17:53 | 61.85958 | -6.82417 | 4006 ft | 215 kts | 33° |
| 2026-04-22 17:53 | 61.87227 | -6.80966 | 3982 ft | 200 kts | 20° |
| 2026-04-22 17:53 | 61.88491 | -6.80194 | 3985 ft | 184 kts | 8° |
| 2026-04-22 17:54 | 61.89709 | -6.79973 | 3970 ft | 170 kts | 359° |
| 2026-04-22 17:54 | 61.90878 | -6.80119 | 3991 ft | 168 kts | 351° |
| 2026-04-22 17:54 | 61.92021 | -6.80627 | 3990 ft | 168 kts | 342° |
| 2026-04-22 17:54 | 61.93110 | -6.81506 | 3987 ft | 167 kts | 333° |
| 2026-04-22 17:55 | 61.93800 | -6.82298 | 3988 ft | 167 kts | 326° |
| 2026-04-22 17:55 | 61.95015 | -6.84271 | 3988 ft | 166 kts | 314° |
| 2026-04-22 17:55 | 61.95783 | -6.86067 | 3978 ft | 162 kts | 306° |
| 2026-04-22 17:55 | 61.96441 | -6.88009 | 3990 ft | 163 kts | 302° |
| 2026-04-22 17:56 | 61.97040 | -6.90084 | 4003 ft | 166 kts | 298° |
| 2026-04-22 17:56 | 61.97602 | -6.92236 | 4002 ft | 165 kts | 297° |
| 2026-04-22 17:56 | 61.98125 | -6.94325 | 3992 ft | 155 kts | 296° |
| 2026-04-22 17:56 | 61.98610 | -6.96289 | 3965 ft | 147 kts | 296° |
| 2026-04-22 17:57 | 61.99081 | -6.98207 | 3738 ft | 146 kts | 296° |
| 2026-04-22 17:57 | 61.99390 | -6.99467 | 3605 ft | 144 kts | 296° |
| 2026-04-22 17:57 | 61.99846 | -7.01320 | 3398 ft | 139 kts | 296° |
| 2026-04-22 17:57 | 62.00295 | -7.03149 | 3159 ft | 139 kts | 296° |
| 2026-04-22 17:58 | 62.00745 | -7.04981 | 2926 ft | 140 kts | 296° |
| 2026-04-22 17:58 | 62.01197 | -7.06816 | 2693 ft | 140 kts | 296° |
| 2026-04-22 17:58 | 62.01646 | -7.08642 | 2465 ft | 139 kts | 296° |
| 2026-04-22 17:58 | 62.02091 | -7.10440 | 2285 ft | 135 kts | 296° |
| 2026-04-22 17:59 | 62.02528 | -7.12206 | 2090 ft | 141 kts | 295° |
| 2026-04-22 17:59 | 62.02978 | -7.14064 | 1841 ft | 142 kts | 296° |
| 2026-04-22 17:59 | 62.03436 | -7.15904 | 1594 ft | 138 kts | 295° |
| 2026-04-22 17:59 | 62.03877 | -7.17689 | 1357 ft | 133 kts | 296° |
| 2026-04-22 18:00 | 62.04301 | -7.19401 | 1085 ft | 129 kts | 295° |
| 2026-04-22 18:00 | 62.04723 | -7.21108 | 843 ft | 130 kts | 296° |
| 2026-04-22 18:00 | 62.05148 | -7.22831 | 682 ft | 131 kts | 295° |
| 2026-04-22 18:00 | 62.05578 | -7.24573 | 467 ft | 133 kts | 295° |
| 2026-04-22 18:01 | 62.06003 | -7.26268 | 268 ft | 131 kts | 297° |
| 2026-04-22 18:01 | 62.06377 | -7.27794 | 285 ft | 88 kts | 298° |
| 2026-04-22 18:01 | 62.06567 | -7.28564 | 278 ft | 44 kts | 297° |
| 2026-04-22 18:01 | 62.06695 | -7.29072 | 268 ft | 12 kts | 298° |
| 2026-04-22 18:02 | 62.06715 | -7.29218 | 266 ft | 4 kts | 323° |
| 2026-04-22 18:02 | 62.06726 | -7.29215 | 266 ft | 1 kts | 35° |
| 2026-04-22 18:02 | 62.06724 | -7.29187 | 266 ft | 5 kts | 109° |
| 2026-04-22 18:02 | 62.06687 | -7.29035 | 270 ft | 20 kts | 118° |
| 2026-04-22 18:03 | 62.06612 | -7.28740 | 273 ft | 23 kts | 117° |
| 2026-04-22 18:03 | 62.06539 | -7.28445 | 277 ft | 22 kts | 118° |
| 2026-04-22 18:03 | 62.06490 | -7.28243 | 279 ft | 11 kts | 107° |
| 2026-04-22 18:03 | 62.06532 | -7.28121 | 278 ft | 12 kts | 20° |
| 2026-04-22 18:04 | 62.06618 | -7.28091 | 278 ft | 13 kts | 358° |
| 2026-04-22 18:04 | 62.06648 | -7.28048 | 280 ft | 3 kts | 81° |
| 2026-04-22 18:04 | 62.06648 | -7.28010 | 278 ft | 2 kts | 88° |
| 2026-04-22 18:04 | 62.06663 | -7.27976 | 278 ft | 4 kts | 36° |
| 2026-04-22 18:05 | 62.06686 | -7.27947 | 278 ft | 1 kts | 31° |